createdAt,value
2018-04-01T00:00:33.292Z,4.00
2018-04-01T00:01:33.404Z,4.00
2018-04-01T00:02:33.411Z,1.00
2018-04-01T00:03:33.446Z,0.00
2018-04-01T00:04:33.435Z,1.00
2018-04-01T00:05:35.253Z,1.00
2018-04-01T00:06:33.437Z,3.00
2018-04-01T00:07:33.346Z,1.00
2018-04-01T00:08:33.458Z,11.00
2018-04-01T00:09:33.466Z,11.00
2018-04-01T00:10:33.479Z,8.00
2018-04-01T00:11:33.506Z,2.00
2018-04-01T00:12:33.482Z,1.00
2018-04-01T00:13:33.490Z,1.00
2018-04-01T00:14:33.402Z,6.00
2018-04-01T00:15:34.670Z,1.00
2018-04-01T00:16:33.309Z,2.00
2018-04-01T00:17:33.335Z,2.00
2018-04-01T00:18:33.333Z,4.00
2018-04-01T00:19:33.321Z,2.00
2018-04-01T00:20:33.344Z,1.00
2018-04-01T00:21:33.350Z,0.00
2018-04-01T00:22:33.350Z,0.00
2018-04-01T00:23:33.364Z,0.00
2018-04-01T00:24:35.244Z,0.00
2018-04-01T00:25:33.176Z,0.00
2018-04-01T00:26:33.299Z,0.00
2018-04-01T00:27:33.293Z,0.00
2018-04-01T00:28:33.403Z,0.00
2018-04-01T00:29:33.412Z,0.00
2018-04-01T00:30:33.420Z,0.00
2018-04-01T00:31:33.414Z,0.00
2018-04-01T00:32:33.422Z,0.00
2018-04-01T00:33:33.442Z,1.00
2018-04-01T00:34:33.437Z,1.00
2018-04-01T00:35:33.451Z,1.00
2018-04-01T00:36:33.479Z,0.00
2018-04-01T00:37:33.361Z,0.00
2018-04-01T00:38:33.362Z,0.00
2018-04-01T00:39:33.489Z,0.00
2018-04-01T00:40:33.490Z,0.00
2018-04-01T00:41:33.490Z,0.00
2018-04-01T00:42:33.517Z,0.00
2018-04-01T00:43:33.401Z,0.00
2018-04-01T00:44:33.510Z,0.00
2018-04-01T00:45:33.522Z,0.00
2018-04-01T00:46:35.770Z,0.00
2018-04-01T00:47:33.334Z,0.00
2018-04-01T00:48:33.338Z,0.00
2018-04-01T00:49:34.373Z,0.00
2018-04-01T00:50:33.357Z,0.00
2018-04-01T00:51:33.357Z,0.00
2018-04-01T00:52:33.581Z,0.00
2018-04-01T00:53:33.380Z,0.00
2018-04-01T00:54:33.402Z,0.00
2018-04-01T00:55:33.391Z,0.00
2018-04-01T00:56:33.402Z,0.00
2018-04-01T00:57:33.393Z,0.00
2018-04-01T00:58:33.404Z,0.00
2018-04-01T00:59:33.417Z,0.00
2018-04-01T01:00:33.419Z,0.00
2018-04-01T01:01:33.322Z,0.00
2018-04-01T01:02:33.445Z,0.00
2018-04-01T01:03:33.446Z,0.00
2018-04-01T01:04:33.454Z,0.00
2018-04-01T01:05:33.694Z,0.00
2018-04-01T01:06:33.368Z,0.00
2018-04-01T01:07:33.364Z,0.00
2018-04-01T01:08:33.374Z,0.00
2018-04-01T01:09:33.727Z,0.00
2018-04-01T01:10:33.185Z,0.00
2018-04-01T01:11:33.204Z,0.00
2018-04-01T01:12:33.196Z,0.00
2018-04-01T01:13:33.347Z,0.00
2018-04-01T01:14:33.418Z,0.00
2018-04-01T01:15:34.796Z,0.00
2018-04-01T01:16:33.328Z,0.00
2018-04-01T01:17:33.282Z,0.00
2018-04-01T01:18:33.481Z,0.00
2018-04-01T01:19:33.477Z,0.00
2018-04-01T01:20:33.357Z,0.00
2018-04-01T01:21:33.375Z,0.00
2018-04-01T01:22:33.386Z,0.00
2018-04-01T01:23:33.387Z,0.00
2018-04-01T01:24:33.390Z,0.00
2018-04-01T01:25:33.402Z,0.00
2018-04-01T01:26:33.405Z,0.00
2018-04-01T01:27:33.413Z,0.00
2018-04-01T01:28:33.434Z,0.00
2018-04-01T01:29:33.436Z,0.00
2018-04-01T01:30:33.433Z,0.00
2018-04-01T01:31:33.440Z,0.00
2018-04-01T01:32:33.358Z,0.00
2018-04-01T01:33:33.461Z,0.00
2018-04-01T01:34:33.466Z,0.00
2018-04-01T01:35:33.477Z,0.00
2018-04-01T01:36:33.477Z,0.00
2018-04-01T01:37:33.494Z,0.00
2018-04-01T01:38:33.493Z,0.00
2018-04-01T01:39:33.502Z,0.00
2018-04-01T01:40:33.747Z,0.00
2018-04-01T01:41:33.514Z,0.00
2018-04-01T01:42:33.118Z,0.00
2018-04-01T01:43:33.533Z,0.00
2018-04-01T01:44:33.541Z,2.00
2018-04-01T01:45:33.552Z,0.00
2018-04-01T01:46:33.558Z,0.00
2018-04-01T01:47:34.819Z,0.00
2018-04-01T01:48:33.561Z,0.00
2018-04-01T01:49:33.578Z,0.00
2018-04-01T01:50:36.898Z,0.00
2018-04-01T01:51:33.614Z,0.00
2018-04-01T01:52:33.602Z,0.00
2018-04-01T01:53:35.877Z,0.00
2018-04-01T01:54:33.423Z,0.00
2018-04-01T01:55:33.408Z,0.00
2018-04-01T01:56:33.422Z,0.00
2018-04-01T01:57:33.422Z,0.00
2018-04-01T01:58:33.441Z,0.00
2018-04-01T01:59:33.337Z,0.00
2018-04-01T02:00:33.477Z,0.00
2018-04-01T02:01:36.766Z,0.00
2018-04-01T02:02:33.510Z,0.00
2018-04-01T02:03:35.553Z,0.00
2018-04-01T02:04:33.482Z,0.00
2018-04-01T02:05:33.485Z,0.00
2018-04-01T02:06:33.496Z,0.00
2018-04-01T02:07:33.502Z,0.00
2018-04-01T02:08:33.505Z,0.00
2018-04-01T02:09:33.512Z,0.00
2018-04-01T02:10:33.521Z,0.00
2018-04-01T02:11:33.326Z,0.00
2018-04-01T02:12:33.332Z,0.00
2018-04-01T02:13:33.535Z,0.00
2018-04-01T02:14:36.649Z,0.00
2018-04-01T02:15:34.690Z,0.00
2018-04-01T02:16:33.565Z,0.00
2018-04-01T02:17:33.772Z,0.00
2018-04-01T02:18:33.573Z,0.00
2018-04-01T02:19:33.584Z,0.00
2018-04-01T02:20:37.916Z,0.00
2018-04-01T02:21:33.609Z,0.00
2018-04-01T02:22:33.607Z,0.00
2018-04-01T02:23:33.612Z,0.00
2018-04-01T02:24:33.651Z,0.00
2018-04-01T02:25:33.442Z,0.00
2018-04-01T02:26:33.441Z,0.00
2018-04-01T02:27:33.346Z,0.00
2018-04-01T02:28:33.475Z,0.00
2018-04-01T02:29:33.473Z,0.00
2018-04-01T02:30:39.138Z,1.00
2018-04-01T02:31:45.150Z,3.00
2018-04-01T02:32:52.450Z,1.00
2018-04-01T02:33:46.354Z,2.00
2018-04-01T02:34:46.958Z,1.00
2018-04-01T02:35:48.872Z,0.00
2018-04-01T02:36:33.401Z,0.00
2018-04-01T02:37:33.411Z,0.00
2018-04-01T02:38:33.545Z,0.00
2018-04-01T02:39:38.747Z,0.00
2018-04-01T02:40:35.537Z,0.00
2018-04-01T02:41:33.340Z,0.00
2018-04-01T02:42:33.349Z,0.00
2018-04-01T02:43:33.787Z,0.00
2018-04-01T02:44:33.359Z,0.00
2018-04-01T02:45:33.366Z,0.00
2018-04-01T02:46:33.379Z,0.00
2018-04-01T02:47:33.824Z,0.00
2018-04-01T02:48:33.389Z,0.00
2018-04-01T02:49:33.410Z,0.00
2018-04-01T02:50:33.409Z,0.00
2018-04-01T02:51:36.510Z,0.00
2018-04-01T02:52:33.423Z,0.00
2018-04-01T02:53:33.425Z,0.00
2018-04-01T02:54:33.438Z,0.00
2018-04-01T02:55:33.653Z,0.00
2018-04-01T02:56:34.438Z,0.00
2018-04-01T02:57:33.347Z,0.00
2018-04-01T02:58:33.361Z,0.00
2018-04-01T02:59:33.371Z,0.00
2018-04-01T03:00:33.380Z,0.00
2018-04-01T03:01:33.395Z,0.00
2018-04-01T03:02:33.426Z,0.00
2018-04-01T03:03:33.434Z,0.00
2018-04-01T03:04:33.486Z,0.00
2018-04-01T03:05:33.452Z,0.00
2018-04-01T03:06:33.415Z,0.00
2018-04-01T03:07:33.429Z,0.00
2018-04-01T03:08:33.666Z,0.00
2018-04-01T03:09:33.465Z,0.00
2018-04-01T03:10:33.446Z,0.00
2018-04-01T03:11:33.352Z,0.00
2018-04-01T03:12:33.681Z,0.00
2018-04-01T03:13:33.370Z,0.00
2018-04-01T03:14:33.374Z,0.00
2018-04-01T03:15:37.479Z,0.00
2018-04-01T03:16:33.391Z,0.00
2018-04-01T03:17:33.504Z,0.00
2018-04-01T03:18:33.509Z,0.00
2018-04-01T03:19:33.510Z,0.00
2018-04-01T03:20:33.526Z,0.00
2018-04-01T03:21:33.537Z,0.00
2018-04-01T03:22:33.530Z,0.00
2018-04-01T03:23:33.548Z,0.00
2018-04-01T03:24:33.540Z,0.00
2018-04-01T03:25:33.568Z,0.00
2018-04-01T03:26:33.571Z,0.00
2018-04-01T03:27:33.477Z,0.00
2018-04-01T03:28:33.802Z,0.00
2018-04-01T03:29:33.635Z,0.00
2018-04-01T03:30:33.389Z,0.00
2018-04-01T03:31:33.407Z,0.00
2018-04-01T03:32:33.397Z,0.00
2018-04-01T03:33:33.309Z,0.00
2018-04-01T03:34:33.641Z,0.00
2018-04-01T03:35:33.426Z,0.00
2018-04-01T03:36:33.430Z,0.00
2018-04-01T03:37:33.440Z,0.00
2018-04-01T03:38:33.438Z,0.00
2018-04-01T03:39:33.450Z,3.00
2018-04-01T03:40:33.476Z,0.00
2018-04-01T03:41:33.469Z,0.00
2018-04-01T03:42:33.480Z,0.00
2018-04-01T03:43:33.397Z,0.00
2018-04-01T03:44:33.395Z,0.00
2018-04-01T03:45:33.389Z,0.00
2018-04-01T03:46:33.511Z,0.00
2018-04-01T03:47:33.501Z,0.00
2018-04-01T03:48:33.518Z,0.00
2018-04-01T03:49:33.531Z,0.00
2018-04-01T03:50:33.530Z,0.00
2018-04-01T03:51:33.543Z,0.00
2018-04-01T03:52:33.579Z,0.00
2018-04-01T03:53:33.477Z,0.00
2018-04-01T03:54:33.557Z,0.00
2018-04-01T03:55:33.574Z,0.00
2018-04-01T03:56:33.574Z,0.00
2018-04-01T03:57:33.582Z,0.00
2018-04-01T03:58:33.626Z,0.00
2018-04-01T03:59:33.589Z,0.00
2018-04-01T04:00:33.501Z,0.00
2018-04-01T04:01:33.401Z,0.00
2018-04-01T04:02:33.413Z,0.00
2018-04-01T04:03:33.430Z,0.00
2018-04-01T04:04:33.426Z,0.00
2018-04-01T04:05:33.644Z,0.00
2018-04-01T04:06:33.446Z,0.00
2018-04-01T04:07:33.451Z,0.00
2018-04-01T04:08:33.454Z,0.00
2018-04-01T04:09:33.465Z,0.00
2018-04-01T04:10:34.493Z,0.00
2018-04-01T04:11:33.474Z,0.00
2018-04-01T04:12:33.486Z,0.00
2018-04-01T04:13:33.491Z,0.00
2018-04-01T04:14:33.497Z,0.00
2018-04-01T04:15:34.842Z,0.00
2018-04-01T04:16:33.514Z,0.00
2018-04-01T04:17:33.530Z,0.00
2018-04-01T04:18:33.866Z,0.00
2018-04-01T04:19:33.529Z,0.00
2018-04-01T04:20:33.546Z,0.00
2018-04-01T04:21:33.554Z,0.00
2018-04-01T04:22:33.559Z,0.00
2018-04-01T04:23:33.564Z,0.00
2018-04-01T04:24:33.576Z,0.00
2018-04-01T04:25:33.572Z,0.00
2018-04-01T04:26:33.486Z,0.00
2018-04-01T04:27:33.594Z,0.00
2018-04-01T04:28:33.602Z,0.00
2018-04-01T04:29:33.843Z,0.00
2018-04-01T04:30:33.407Z,0.00
2018-04-01T04:31:33.416Z,0.00
2018-04-01T04:32:33.421Z,0.00
2018-04-01T04:33:33.638Z,0.00
2018-04-01T04:34:33.443Z,0.00
2018-04-01T04:35:33.452Z,0.00
2018-04-01T04:36:33.463Z,0.00
2018-04-01T04:37:33.461Z,0.00
2018-04-01T04:38:33.469Z,0.00
2018-04-01T04:39:33.477Z,0.00
2018-04-01T04:40:33.506Z,0.00
2018-04-01T04:41:33.497Z,0.00
2018-04-01T04:42:33.493Z,0.00
2018-04-01T04:43:33.506Z,0.00
2018-04-01T04:44:33.524Z,0.00
2018-04-01T04:45:33.525Z,0.00
2018-04-01T04:46:33.526Z,0.00
2018-04-01T04:47:33.541Z,0.00
2018-04-01T04:48:33.543Z,0.00
2018-04-01T04:49:33.549Z,0.00
2018-04-01T04:50:33.558Z,0.00
2018-04-01T04:51:33.557Z,0.00
2018-04-01T04:52:33.570Z,0.00
2018-04-01T04:53:33.997Z,0.00
2018-04-01T04:54:33.583Z,0.00
2018-04-01T04:55:36.430Z,0.00
2018-04-01T04:56:33.498Z,0.00
2018-04-01T04:57:33.506Z,0.00
2018-04-01T04:58:33.418Z,0.00
2018-04-01T04:59:33.850Z,0.00
2018-04-01T05:00:33.421Z,0.00
2018-04-01T05:01:33.433Z,0.00
2018-04-01T05:02:33.443Z,0.00
2018-04-01T05:03:33.887Z,0.00
2018-04-01T05:04:33.458Z,0.00
2018-04-01T05:05:33.462Z,0.00
2018-04-01T05:06:33.470Z,0.00
2018-04-01T05:07:33.670Z,0.00
2018-04-01T05:08:33.481Z,0.00
2018-04-01T05:09:33.488Z,0.00
2018-04-01T05:10:33.497Z,0.00
2018-04-01T05:11:33.510Z,0.00
2018-04-01T05:12:33.522Z,0.00
2018-04-01T05:13:33.537Z,0.00
2018-04-01T05:14:33.530Z,0.00
2018-04-01T05:15:34.670Z,0.00
2018-04-01T05:16:33.544Z,0.00
2018-04-01T05:17:33.551Z,0.00
2018-04-01T05:18:33.559Z,0.00
2018-04-01T05:19:33.575Z,0.00
2018-04-01T05:20:33.595Z,0.00
2018-04-01T05:21:33.574Z,0.00
2018-04-01T05:22:33.818Z,0.00
2018-04-01T05:23:33.386Z,0.00
2018-04-01T05:24:33.822Z,0.00
2018-04-01T05:25:33.506Z,0.00
2018-04-01T05:26:33.531Z,0.00
2018-04-01T05:27:33.426Z,0.00
2018-04-01T05:28:34.654Z,0.00
2018-04-01T05:29:33.871Z,0.00
2018-04-01T05:30:33.455Z,0.00
2018-04-01T05:31:33.484Z,0.00
2018-04-01T05:32:33.455Z,0.00
2018-04-01T05:33:33.667Z,0.00
2018-04-01T05:34:33.682Z,0.00
2018-04-01T05:35:33.678Z,0.00
2018-04-01T05:36:33.690Z,0.00
2018-04-01T05:37:33.697Z,0.00
2018-04-01T05:38:33.694Z,0.00
2018-04-01T05:39:34.962Z,0.00
2018-04-01T05:40:33.413Z,0.00
2018-04-01T05:41:36.356Z,2.00
2018-04-01T05:42:33.422Z,0.00
2018-04-01T05:43:33.329Z,0.00
2018-04-01T05:44:37.284Z,0.00
2018-04-01T05:45:33.773Z,0.00
2018-04-01T05:46:35.641Z,0.00
2018-04-01T05:47:33.565Z,0.00
2018-04-01T05:48:33.465Z,0.00
2018-04-01T05:49:33.482Z,0.00
2018-04-01T05:50:33.580Z,0.00
2018-04-01T05:51:33.526Z,1.00
2018-04-01T05:52:33.517Z,1.00
2018-04-01T05:53:33.543Z,0.00
2018-04-01T05:54:33.650Z,0.00
2018-04-01T05:55:39.497Z,0.00
2018-04-01T05:56:33.562Z,0.00
2018-04-01T05:57:33.426Z,0.00
2018-04-01T05:58:33.641Z,0.00
2018-04-01T05:59:33.488Z,0.00
2018-04-01T06:00:36.141Z,0.00
2018-04-01T06:01:33.466Z,0.00
2018-04-01T06:02:36.546Z,2.00
2018-04-01T06:03:33.870Z,1.00
2018-04-01T06:04:33.482Z,0.00
2018-04-01T06:05:33.488Z,0.00
2018-04-01T06:06:33.495Z,0.00
2018-04-01T06:07:33.700Z,0.00
2018-04-01T06:08:33.629Z,0.00
2018-04-01T06:09:33.724Z,0.00
2018-04-01T06:10:33.745Z,0.00
2018-04-01T06:11:33.535Z,0.00
2018-04-01T06:12:33.573Z,1.00
2018-04-01T06:13:33.591Z,0.00
2018-04-01T06:14:33.590Z,1.00
2018-04-01T06:15:35.230Z,1.00
2018-04-01T06:16:33.505Z,2.00
2018-04-01T06:17:33.405Z,2.00
2018-04-01T06:18:33.513Z,1.00
2018-04-01T06:19:33.520Z,0.00
2018-04-01T06:20:33.539Z,0.00
2018-04-01T06:21:33.441Z,1.00
2018-04-01T06:22:33.546Z,1.00
2018-04-01T06:23:33.450Z,1.00
2018-04-01T06:24:33.661Z,1.00
2018-04-01T06:25:33.674Z,1.00
2018-04-01T06:26:33.677Z,0.00
2018-04-01T06:27:33.680Z,0.00
2018-04-01T06:28:36.662Z,2.00
2018-04-01T06:29:33.702Z,1.00
2018-04-01T06:30:33.707Z,1.00
2018-04-01T06:31:33.485Z,1.00
2018-04-01T06:32:34.026Z,1.00
2018-04-01T06:33:33.931Z,0.00
2018-04-01T06:34:33.938Z,0.00
2018-04-01T06:35:33.942Z,0.00
2018-04-01T06:36:33.750Z,0.00
2018-04-01T06:37:36.861Z,0.00
2018-04-01T06:38:33.768Z,1.00
2018-04-01T06:39:33.772Z,1.00
2018-04-01T06:40:33.785Z,0.00
2018-04-01T06:41:33.825Z,0.00
2018-04-01T06:42:33.789Z,0.00
2018-04-01T06:43:38.462Z,0.00
2018-04-01T06:44:33.498Z,0.00
2018-04-01T06:45:33.813Z,0.00
2018-04-01T06:46:33.921Z,0.00
2018-04-01T06:47:33.621Z,0.00
2018-04-01T06:48:33.637Z,0.00
2018-04-01T06:49:33.638Z,0.00
2018-04-01T06:50:33.651Z,0.00
2018-04-01T06:51:33.546Z,0.00
2018-04-01T06:52:33.566Z,0.00
2018-04-01T06:53:33.670Z,0.00
2018-04-01T06:54:33.682Z,0.00
2018-04-01T06:55:33.686Z,0.00
2018-04-01T06:56:33.692Z,0.00
2018-04-01T06:57:33.707Z,0.00
2018-04-01T06:58:44.868Z,1.00
2018-04-01T06:59:33.514Z,2.00
2018-04-01T07:00:36.186Z,2.00
2018-04-01T07:01:33.476Z,1.00
2018-04-01T07:02:33.546Z,1.00
2018-04-01T07:03:33.400Z,2.00
2018-04-01T07:04:33.194Z,4.00
2018-04-01T07:05:33.512Z,4.00
2018-04-01T07:06:36.294Z,2.00
2018-04-01T07:07:33.521Z,1.00
2018-04-01T07:08:40.799Z,1.00
2018-04-01T07:09:33.580Z,1.00
2018-04-01T07:10:33.588Z,3.00
2018-04-01T07:11:33.602Z,0.00
2018-04-01T07:12:33.603Z,2.00
2018-04-01T07:13:39.346Z,5.00
2018-04-01T07:14:35.998Z,3.00
2018-04-01T07:15:36.973Z,3.00
2018-04-01T07:16:33.533Z,2.00
2018-04-01T07:17:33.558Z,0.00
2018-04-01T07:18:33.548Z,0.00
2018-04-01T07:19:34.581Z,0.00
2018-04-01T07:20:33.563Z,1.00
2018-04-01T07:21:33.571Z,0.00
2018-04-01T07:22:33.583Z,0.00
2018-04-01T07:23:33.547Z,0.00
2018-04-01T07:24:33.545Z,0.00
2018-04-01T07:25:33.593Z,1.00
2018-04-01T07:26:33.556Z,0.00
2018-04-01T07:27:33.571Z,1.00
2018-04-01T07:28:33.586Z,1.00
2018-04-01T07:29:39.471Z,0.00
2018-04-01T07:30:33.525Z,0.00
2018-04-01T07:31:33.430Z,0.00
2018-04-01T07:32:33.545Z,0.00
2018-04-01T07:33:33.545Z,0.00
2018-04-01T07:34:33.419Z,0.00
2018-04-01T07:35:33.562Z,0.00
2018-04-01T07:38:09.936Z,0.00
2018-04-01T07:38:33.586Z,0.00
2018-04-01T07:39:36.566Z,1.00
2018-04-01T07:40:33.452Z,1.00
2018-04-01T07:41:33.483Z,1.00
2018-04-01T07:42:39.214Z,4.00
2018-04-01T07:43:36.202Z,0.00
2018-04-01T07:44:36.037Z,0.00
2018-04-01T07:45:33.390Z,0.00
2018-04-01T07:46:36.279Z,1.00
2018-04-01T07:47:33.118Z,2.00
2018-04-01T07:48:33.123Z,1.00
2018-04-01T07:49:33.518Z,5.00
2018-04-01T07:50:33.529Z,5.00
2018-04-01T07:51:33.542Z,7.00
2018-04-01T07:52:39.499Z,5.00
2018-04-01T07:53:33.550Z,8.00
2018-04-01T07:54:33.567Z,10.00
2018-04-01T07:55:33.368Z,7.00
2018-04-01T07:56:33.577Z,11.00
2018-04-01T07:57:33.597Z,9.00
2018-04-01T07:58:33.585Z,8.00
2018-04-01T07:59:36.548Z,1.00
2018-04-01T08:00:33.500Z,5.00
2018-04-01T08:01:33.411Z,9.00
2018-04-01T08:02:34.443Z,2.00
2018-04-01T08:03:34.271Z,2.00
2018-04-01T08:04:34.242Z,2.00
2018-04-01T08:05:37.309Z,2.00
2018-04-01T08:06:38.192Z,1.00
2018-04-01T08:07:37.422Z,5.00
2018-04-01T08:08:35.828Z,3.00
2018-04-01T08:09:38.178Z,6.00
2018-04-01T08:10:35.479Z,0.00
2018-04-01T08:11:35.161Z,2.00
2018-04-01T08:12:37.497Z,2.00
2018-04-01T08:13:35.062Z,2.00
2018-04-01T08:14:35.219Z,2.00
2018-04-01T08:15:36.376Z,3.00
2018-04-01T08:16:35.214Z,5.00
2018-04-01T08:17:35.019Z,3.00
2018-04-01T08:18:34.640Z,3.00
2018-04-01T08:19:35.163Z,2.00
2018-04-01T08:20:35.018Z,1.00
2018-04-01T08:21:37.579Z,2.00
2018-04-01T08:22:34.805Z,7.00
2018-04-01T08:23:35.090Z,2.00
2018-04-01T08:24:34.833Z,3.00
2018-04-01T08:25:35.235Z,2.00
2018-04-01T08:26:34.822Z,1.00
2018-04-01T08:27:34.797Z,1.00
2018-04-01T08:28:34.802Z,1.00
2018-04-01T08:29:34.731Z,0.00
2018-04-01T08:30:34.952Z,0.00
2018-04-01T08:31:38.147Z,2.00
2018-04-01T08:32:34.821Z,2.00
2018-04-01T08:33:35.038Z,3.00
2018-04-01T08:34:34.807Z,0.00
2018-04-01T08:35:35.074Z,2.00
2018-04-01T08:36:35.052Z,2.00
2018-04-01T08:37:34.550Z,3.00
2018-04-01T08:38:34.811Z,2.00
2018-04-01T08:39:34.798Z,1.00
2018-04-01T08:40:34.849Z,0.00
2018-04-01T08:41:36.923Z,2.00
2018-04-01T08:42:35.279Z,0.00
2018-04-01T08:43:34.999Z,4.00
2018-04-01T08:44:35.171Z,5.00
2018-04-01T08:45:35.010Z,1.00
2018-04-01T08:46:38.048Z,1.00
2018-04-01T08:47:35.103Z,1.00
2018-04-01T08:48:34.945Z,1.00
2018-04-01T08:49:34.996Z,1.00
2018-04-01T08:50:35.051Z,0.00
2018-04-01T08:51:35.152Z,9.00
2018-04-01T08:52:35.312Z,4.00
2018-04-01T08:53:35.116Z,6.00
2018-04-01T08:54:35.119Z,6.00
2018-04-01T08:55:35.054Z,5.00
2018-04-01T08:56:35.100Z,5.00
2018-04-01T08:57:34.991Z,7.00
2018-04-01T08:58:35.005Z,17.00
2018-04-01T08:59:34.874Z,17.00
2018-04-01T09:00:34.920Z,14.00
2018-04-01T09:01:33.668Z,11.00
2018-04-01T09:02:33.550Z,14.00
2018-04-01T09:03:33.553Z,11.00
2018-04-01T09:04:33.560Z,9.00
2018-04-01T09:05:33.570Z,5.00
2018-04-01T09:06:36.110Z,8.00
2018-04-01T09:07:39.933Z,6.00
2018-04-01T09:08:33.591Z,5.00
2018-04-01T09:09:33.521Z,3.00
2018-04-01T09:10:33.492Z,1.00
2018-04-01T09:11:33.619Z,3.00
2018-04-01T09:12:33.626Z,0.00
2018-04-01T09:13:33.624Z,6.00
2018-04-01T09:14:33.428Z,11.00
2018-04-01T09:15:34.869Z,11.00
2018-04-01T09:16:33.561Z,7.00
2018-04-01T09:17:33.545Z,10.00
2018-04-01T09:18:33.562Z,13.00
2018-04-01T09:19:33.565Z,7.00
2018-04-01T09:20:33.570Z,4.00
2018-04-01T09:21:33.586Z,3.00
2018-04-01T09:22:33.691Z,6.00
2018-04-01T09:23:33.588Z,5.00
2018-04-01T09:24:39.599Z,0.00
2018-04-01T09:25:33.602Z,0.00
2018-04-01T09:26:33.617Z,13.00
2018-04-01T09:27:33.630Z,12.00
2018-04-01T09:28:33.654Z,10.00
2018-04-01T09:29:33.625Z,9.00
2018-04-01T09:30:33.654Z,11.00
2018-04-01T09:31:33.671Z,13.00
2018-04-01T09:32:33.660Z,13.00
2018-04-01T09:33:33.645Z,4.00
2018-04-01T09:34:36.663Z,11.00
2018-04-01T09:35:33.681Z,12.00
2018-04-01T09:36:33.586Z,12.00
2018-04-01T09:37:33.594Z,18.00
2018-04-01T09:38:35.193Z,27.00
2018-04-01T09:39:33.614Z,30.00
2018-04-01T09:40:33.617Z,17.00
2018-04-01T09:41:33.638Z,26.00
2018-04-01T09:42:33.629Z,22.00
2018-04-01T09:43:33.662Z,18.00
2018-04-01T09:44:33.658Z,18.00
2018-04-01T09:45:33.659Z,11.00
2018-04-01T09:46:35.441Z,2.00
2018-04-01T09:47:33.585Z,1.00
2018-04-01T09:48:33.579Z,15.00
2018-04-01T09:49:33.582Z,22.00
2018-04-01T09:50:33.586Z,21.00
2018-04-01T09:51:33.786Z,12.00
2018-04-01T09:52:33.906Z,2.00
2018-04-01T09:53:36.593Z,15.00
2018-04-01T09:54:33.618Z,11.00
2018-04-01T09:55:43.884Z,22.00
2018-04-01T09:56:51.012Z,29.00
2018-04-01T09:57:46.095Z,24.00
2018-04-01T09:58:49.238Z,16.00
2018-04-01T09:59:43.487Z,30.00
2018-04-01T10:00:47.196Z,33.00
2018-04-01T10:01:49.864Z,27.00
2018-04-01T10:02:52.244Z,31.00
2018-04-01T10:03:50.348Z,33.00
2018-04-01T10:04:33.595Z,22.00
2018-04-01T10:05:42.918Z,31.00
2018-04-01T10:06:35.138Z,11.00
2018-04-01T10:07:33.610Z,11.00
2018-04-01T10:08:33.614Z,10.00
2018-04-01T10:09:33.617Z,5.00
2018-04-01T10:10:33.629Z,18.00
2018-04-01T10:11:33.635Z,29.00
2018-04-01T10:12:33.645Z,12.00
2018-04-01T10:13:33.653Z,25.00
2018-04-01T10:14:33.701Z,12.00
2018-04-01T10:15:34.802Z,10.00
2018-04-01T10:16:33.679Z,9.00
2018-04-01T10:17:33.702Z,9.00
2018-04-01T10:18:33.580Z,7.00
2018-04-01T10:19:36.509Z,20.00
2018-04-01T10:20:33.631Z,13.00
2018-04-01T10:21:33.602Z,9.00
2018-04-01T10:22:33.610Z,4.00
2018-04-01T10:23:33.617Z,13.00
2018-04-01T10:24:36.421Z,7.00
2018-04-01T10:25:46.626Z,12.00
2018-04-01T10:26:33.648Z,10.00
2018-04-01T10:27:33.641Z,10.00
2018-04-01T10:28:36.650Z,7.00
2018-04-01T10:29:33.678Z,12.00
2018-04-01T10:30:33.778Z,4.00
2018-04-01T10:31:33.677Z,8.00
2018-04-01T10:32:33.753Z,8.00
2018-04-01T10:33:33.594Z,17.00
2018-04-01T10:34:33.610Z,24.00
2018-04-01T10:35:33.605Z,10.00
2018-04-01T10:36:33.611Z,9.00
2018-04-01T10:37:33.625Z,11.00
2018-04-01T10:38:44.192Z,9.00
2018-04-01T10:39:40.489Z,23.00
2018-04-01T10:40:44.814Z,17.00
2018-04-01T10:41:33.652Z,13.00
2018-04-01T10:42:33.652Z,13.00
2018-04-01T10:43:36.014Z,18.00
2018-04-01T10:44:36.434Z,23.00
2018-04-01T10:45:33.710Z,17.00
2018-04-01T10:46:33.586Z,15.00
2018-04-01T10:47:33.689Z,13.00
2018-04-01T10:48:33.697Z,13.00
2018-04-01T10:49:33.654Z,16.00
2018-04-01T10:50:33.665Z,9.00
2018-04-01T10:51:33.625Z,10.00
2018-04-01T10:52:33.644Z,41.00
2018-04-01T10:53:33.638Z,16.00
2018-04-01T10:54:33.641Z,16.00
2018-04-01T10:55:33.550Z,18.00
2018-04-01T10:56:36.321Z,14.00
2018-04-01T10:57:33.666Z,7.00
2018-04-01T10:58:33.673Z,15.00
2018-04-01T10:59:33.682Z,20.00
2018-04-01T11:00:33.685Z,12.00
2018-04-01T11:01:33.693Z,9.00
2018-04-01T11:02:33.703Z,28.00
2018-04-01T11:03:33.606Z,14.00
2018-04-01T11:04:44.398Z,30.00
2018-04-01T11:05:38.936Z,28.00
2018-04-01T11:06:33.633Z,14.00
2018-04-01T11:07:33.633Z,28.00
2018-04-01T11:08:33.652Z,16.00
2018-04-01T11:09:33.667Z,30.00
2018-04-01T11:10:33.657Z,8.00
2018-04-01T11:11:33.692Z,12.00
2018-04-01T11:12:36.452Z,13.00
2018-04-01T11:13:33.686Z,13.00
2018-04-01T11:14:33.698Z,24.00
2018-04-01T11:15:34.923Z,28.00
2018-04-01T11:16:33.698Z,33.00
2018-04-01T11:17:33.712Z,17.00
2018-04-01T11:18:33.715Z,14.00
2018-04-01T11:19:33.625Z,13.00
2018-04-01T11:20:33.638Z,15.00
2018-04-01T11:21:33.644Z,17.00
2018-04-01T11:22:33.646Z,18.00
2018-04-01T11:23:36.309Z,17.00
2018-04-01T11:24:33.860Z,11.00
2018-04-01T11:25:33.695Z,15.00
2018-04-01T11:26:33.682Z,15.00
2018-04-01T11:27:33.676Z,15.00
2018-04-01T11:28:33.691Z,17.00
2018-04-01T11:29:33.694Z,11.00
2018-04-01T11:30:33.702Z,9.00
2018-04-01T11:31:33.715Z,14.00
2018-04-01T11:32:33.713Z,16.00
2018-04-01T11:33:33.750Z,13.00
2018-04-01T11:34:33.655Z,33.00
2018-04-01T11:35:33.536Z,11.00
2018-04-01T11:36:33.539Z,15.00
2018-04-01T11:37:33.554Z,13.00
2018-04-01T11:38:36.141Z,28.00
2018-04-01T11:39:33.666Z,17.00
2018-04-01T11:40:33.569Z,18.00
2018-04-01T11:41:33.684Z,15.00
2018-04-01T11:42:33.680Z,12.00
2018-04-01T11:43:33.701Z,9.00
2018-04-01T11:44:33.701Z,16.00
2018-04-01T11:45:33.714Z,11.00
2018-04-01T11:46:33.727Z,11.00
2018-04-01T11:47:33.734Z,38.00
2018-04-01T11:48:33.731Z,36.00
2018-04-01T11:49:33.635Z,21.00
2018-04-01T11:50:34.758Z,22.00
2018-04-01T11:51:33.549Z,30.00
2018-04-01T11:52:33.658Z,13.00
2018-04-01T11:53:33.662Z,11.00
2018-04-01T11:54:33.670Z,27.00
2018-04-01T11:55:33.680Z,16.00
2018-04-01T11:56:33.689Z,34.00
2018-04-01T11:57:33.697Z,16.00
2018-04-01T11:58:33.706Z,19.00
2018-04-01T11:59:33.728Z,24.00
2018-04-01T12:00:33.718Z,17.00
2018-04-01T12:01:33.726Z,24.00
2018-04-01T12:02:33.734Z,33.00
2018-04-01T12:03:35.909Z,18.00
2018-04-01T12:04:33.747Z,19.00
2018-04-01T12:05:33.647Z,31.00
2018-04-01T12:06:33.663Z,17.00
2018-04-01T12:07:36.088Z,14.00
2018-04-01T12:08:33.666Z,16.00
2018-04-01T12:09:33.681Z,17.00
2018-04-01T12:10:33.686Z,20.00
2018-04-01T12:11:49.733Z,9.00
2018-04-01T12:12:50.664Z,15.00
2018-04-01T12:13:45.469Z,13.00
2018-04-01T12:14:45.427Z,35.00
2018-04-01T12:15:46.739Z,35.00
2018-04-01T12:16:42.903Z,13.00
2018-04-01T12:17:41.947Z,19.00
2018-04-01T12:18:33.759Z,31.00
2018-04-01T12:19:33.745Z,18.00
2018-04-01T12:20:33.645Z,23.00
2018-04-01T12:21:33.664Z,8.00
2018-04-01T12:22:33.672Z,16.00
2018-04-01T12:23:33.694Z,16.00
2018-04-01T12:24:33.682Z,31.00
2018-04-01T12:25:33.711Z,16.00
2018-04-01T12:26:36.335Z,19.00
2018-04-01T12:27:33.606Z,14.00
2018-04-01T12:28:33.714Z,11.00
2018-04-01T12:29:33.722Z,15.00
2018-04-01T12:30:33.730Z,21.00
2018-04-01T12:31:33.743Z,14.00
2018-04-01T12:32:33.741Z,15.00
2018-04-01T12:33:33.646Z,50.00
2018-04-01T12:34:33.760Z,33.00
2018-04-01T12:35:33.666Z,25.00
2018-04-01T12:36:33.674Z,17.00
2018-04-01T12:37:33.675Z,17.00
2018-04-01T12:38:33.709Z,40.00
2018-04-01T12:39:33.718Z,25.00
2018-04-01T12:40:33.693Z,21.00
2018-04-01T12:41:33.718Z,14.00
2018-04-01T12:42:33.706Z,7.00
2018-04-01T12:43:33.718Z,14.00
2018-04-01T12:44:33.742Z,33.00
2018-04-01T12:45:33.833Z,20.00
2018-04-01T12:46:33.739Z,17.00
2018-04-01T12:47:33.758Z,15.00
2018-04-01T12:48:33.758Z,12.00
2018-04-01T12:49:33.762Z,48.00
2018-04-01T12:50:33.774Z,42.00
2018-04-01T12:51:33.725Z,32.00
2018-04-01T12:52:33.686Z,45.00
2018-04-01T12:53:33.692Z,30.00
2018-04-01T12:54:33.702Z,16.00
2018-04-01T12:55:34.720Z,27.00
2018-04-01T12:56:33.749Z,53.00
2018-04-01T12:57:35.630Z,37.00
2018-04-01T12:58:33.726Z,51.00
2018-04-01T12:59:33.739Z,36.00
2018-04-01T13:00:33.754Z,17.00
2018-04-01T13:01:33.745Z,15.00
2018-04-01T13:02:33.762Z,17.00
2018-04-01T13:03:33.761Z,19.00
2018-04-01T13:04:33.770Z,14.00
2018-04-01T13:05:33.785Z,35.00
2018-04-01T13:06:33.696Z,31.00
2018-04-01T13:07:33.699Z,49.00
2018-04-01T13:08:33.699Z,43.00
2018-04-01T13:09:33.707Z,13.00
2018-04-01T13:10:33.791Z,38.00
2018-04-01T13:11:33.773Z,40.00
2018-04-01T13:12:33.725Z,32.00